Time;durP1;ratioP1;P1;durP2;ratioP2;P2;SDS_P1;SDS_P2;PMS_P1;PMS_P2;Temp;Humidity;BMP_temperature;BMP_pressure;BME280_temperature;BME280_humidity;BME280_pressure;Samples;Min_cycle;Max_cycle;Signal;HPM_P1;HPM_P2
2023/01/18 00:00:33;;;;;;;0.10;0.10;;;3.00;99.90;;;;;;5041764;28;20044;-81
2023/01/18 00:02:59;;;;;;;0.17;0.17;;;3.00;99.90;;;;;;5041281;28;20025;-82
2023/01/18 00:05:25;;;;;;;0.38;0.38;;;3.10;99.90;;;;;;5041906;28;20271;-82
2023/01/18 00:07:54;;;;;;;0.30;0.30;;;3.00;99.90;;;;;;5037109;28;20123;-81
2023/01/18 00:10:21;;;;;;;0.10;0.10;;;3.00;99.90;;;;;;5041081;28;20053;-81
2023/01/18 00:12:48;;;;;;;0.28;0.28;;;3.00;99.90;;;;;;5035801;28;20114;-81
2023/01/18 00:15:14;;;;;;;0.30;0.30;;;3.00;99.90;;;;;;5039416;28;20025;-81
2023/01/18 00:17:52;;;;;;;0.10;0.10;;;2.90;99.90;;;;;;5041478;28;20032;-81
2023/01/18 00:20:21;;;;;;;1.20;0.55;;;2.90;99.90;;;;;;5037859;28;20021;-81
2023/01/18 00:22:48;;;;;;;0.20;0.20;;;2.90;99.90;;;;;;5040451;28;20021;-82
2023/01/18 00:25:14;;;;;;;0.10;0.10;;;3.00;99.90;;;;;;5046517;28;20795;-82
2023/01/18 00:27:45;;;;;;;0.10;0.10;;;3.00;99.90;;;;;;5037513;28;20029;-82
2023/01/18 00:30:11;;;;;;;0.20;0.20;;;2.90;99.90;;;;;;5041821;28;20048;-81
2023/01/18 00:32:37;;;;;;;0.10;0.10;;;2.80;99.90;;;;;;5042109;28;20029;-81
2023/01/18 00:35:06;;;;;;;0.10;0.10;;;2.90;99.90;;;;;;5039911;28;20110;-83
2023/01/18 00:37:35;;;;;;;0.10;0.10;;;3.00;99.90;;;;;;5042498;28;20909;-83
2023/01/18 00:40:02;;;;;;;0.20;0.20;;;2.90;99.90;;;;;;5045178;28;20056;-83
2023/01/18 00:45:12;;;;;;;0.20;0.20;;;2.80;99.90;;;;;;5045536;28;20075;-83
2023/01/18 00:47:38;;;;;;;0.45;0.45;;;2.80;99.90;;;;;;5045141;28;20579;-83
2023/01/18 00:50:04;;;;;;;0.10;0.10;;;2.80;99.90;;;;;;5044220;28;20033;-83
2023/01/18 00:52:30;;;;;;;0.10;0.10;;;2.70;99.90;;;;;;5045145;28;20108;-83
2023/01/18 00:54:56;;;;;;;0.10;0.10;;;2.70;99.90;;;;;;5045462;28;20029;-81
2023/01/18 00:57:22;;;;;;;0.10;0.10;;;2.70;99.90;;;;;;5061055;28;20033;-80
2023/01/18 00:59:48;;;;;;;0.10;0.10;;;2.70;99.90;;;;;;5049499;28;20063;-80
2023/01/18 01:02:14;;;;;;;0.10;0.10;;;2.80;99.90;;;;;;5045769;28;20480;-80
2023/01/18 01:07:24;;;;;;;0.10;0.10;;;2.60;99.90;;;;;;5042101;28;20094;-81
2023/01/18 01:09:50;;;;;;;0.10;0.10;;;2.60;99.90;;;;;;5044365;28;20082;-81
2023/01/18 01:26:07;;;;;;;0.10;0.10;;;2.70;99.90;;;;;;5035762;28;20110;-81
2023/01/18 01:28:44;;;;;;;0.10;0.10;;;2.70;99.90;;;;;;5044248;28;20013;-80
2023/01/18 01:31:13;;;;;;;0.10;0.10;;;2.70;99.90;;;;;;5043691;28;20029;-81
2023/01/18 01:33:40;;;;;;;1.13;1.08;;;2.80;99.90;;;;;;5043881;28;20064;-81
2023/01/18 01:36:17;;;;;;;0.10;0.10;;;2.80;99.90;;;;;;5044122;28;20158;-81
2023/01/18 01:38:43;;;;;;;0.10;0.10;;;2.70;99.90;;;;;;5041061;28;20032;-83
2023/01/18 01:41:17;;;;;;;0.10;0.10;;;2.70;99.90;;;;;;5043540;28;20028;-83
2023/01/18 01:43:56;;;;;;;0.10;0.10;;;2.80;99.90;;;;;;5044038;28;20041;-85
2023/01/18 01:46:41;;;;;;;0.10;0.10;;;2.70;99.90;;;;;;5043043;28;20064;-82
2023/01/18 01:49:22;;;;;;;0.10;0.10;;;2.90;99.90;;;;;;5038126;28;20021;-82
2023/01/18 01:51:54;;;;;;;0.13;0.13;;;2.90;99.90;;;;;;5042765;28;20036;-81
2023/01/18 01:54:33;;;;;;;0.20;0.20;;;2.90;99.90;;;;;;5042441;28;20408;-82
2023/01/18 01:57:14;;;;;;;0.10;0.10;;;2.90;99.90;;;;;;5043235;28;20174;-81
2023/01/18 01:59:45;;;;;;;1.13;0.40;;;2.90;99.90;;;;;;5047197;28;20116;-83
2023/01/18 02:02:11;;;;;;;0.57;0.57;;;2.90;99.90;;;;;;5058405;28;20025;-83
2023/01/18 02:04:42;;;;;;;0.10;0.10;;;3.00;99.90;;;;;;5043733;28;20048;-80
2023/01/18 02:07:09;;;;;;;0.13;0.13;;;3.00;99.90;;;;;;5039546;28;20516;-80
2023/01/18 02:09:35;;;;;;;0.10;0.10;;;2.90;99.90;;;;;;5043265;28;20053;-80
2023/01/18 02:12:01;;;;;;;0.40;0.40;;;2.90;99.90;;;;;;5042759;28;20043;-83
2023/01/18 02:14:28;;;;;;;0.10;0.10;;;2.90;99.90;;;;;;5041928;28;20154;-83
2023/01/18 02:17:31;;;;;;;0.10;0.10;;;2.80;99.90;;;;;;5036794;28;20270;-83
2023/01/18 02:20:06;;;;;;;0.10;0.10;;;2.70;99.90;;;;;;5036059;28;20033;-84
2023/01/18 02:22:46;;;;;;;0.10;0.10;;;2.70;99.90;;;;;;5040761;28;20040;-83
2023/01/18 02:25:40;;;;;;;0.10;0.10;;;2.70;99.90;;;;;;5046052;28;20115;-83
2023/01/18 02:28:16;;;;;;;0.20;0.20;;;2.70;99.90;;;;;;5054230;28;20600;-83
2023/01/18 02:31:15;;;;;;;0.10;0.10;;;2.70;99.90;;;;;;5051853;28;20032;-84
2023/01/18 02:33:53;;;;;;;1.65;1.23;;;2.70;99.90;;;;;;5041705;28;20820;-83
2023/01/18 02:36:31;;;;;;;0.55;0.55;;;2.70;99.90;;;;;;5040525;28;20562;-82
2023/01/18 02:39:10;;;;;;;0.10;0.10;;;2.70;99.90;;;;;;5042717;28;20056;-82
2023/01/18 02:47:22;;;;;;;0.10;0.10;;;2.70;99.90;;;;;;5042674;28;20073;-81
2023/01/18 02:49:47;;;;;;;1.13;0.90;;;2.70;99.90;;;;;;5042018;28;20115;-82
2023/01/18 02:52:52;;;;;;;0.30;0.30;;;2.70;99.90;;;;;;5040942;28;20476;-82
2023/01/18 02:55:21;;;;;;;0.10;0.10;;;2.50;99.90;;;;;;5039343;28;20557;-82
2023/01/18 02:57:47;;;;;;;0.13;0.13;;;2.60;99.90;;;;;;5040811;28;20037;-82
2023/01/18 03:00:17;;;;;;;0.10;0.10;;;2.70;99.90;;;;;;5047045;28;20036;-83
2023/01/18 03:02:47;;;;;;;0.10;0.10;;;2.60;99.90;;;;;;5042369;28;20040;-83
2023/01/18 03:05:13;;;;;;;0.10;0.10;;;2.50;99.90;;;;;;5038846;28;20033;-83
2023/01/18 03:07:40;;;;;;;0.10;0.10;;;2.50;99.90;;;;;;5044822;28;20013;-82
2023/01/18 03:10:10;;;;;;;0.30;0.30;;;2.50;99.90;;;;;;5041068;28;20079;-82
2023/01/18 03:13:14;;;;;;;0.10;0.10;;;2.40;99.90;;;;;;5038629;28;20499;-82
2023/01/18 03:15:57;;;;;;;0.10;0.10;;;2.60;99.90;;;;;;5032738;28;20088;-82
2023/01/18 03:18:34;;;;;;;0.10;0.10;;;2.50;99.90;;;;;;5047912;28;20671;-82
2023/01/18 03:21:04;;;;;;;0.15;0.15;;;2.40;99.90;;;;;;5042813;28;20017;-82
2023/01/18 03:23:39;;;;;;;0.20;0.20;;;2.60;99.90;;;;;;5041242;28;20036;-81
2023/01/18 03:26:16;;;;;;;0.10;0.10;;;2.80;99.90;;;;;;5039770;28;20033;-82
2023/01/18 03:34:26;;;;;;;0.10;0.10;;;2.60;99.90;;;;;;5041654;28;20048;-82
2023/01/18 03:36:54;;;;;;;0.40;0.40;;;2.80;99.90;;;;;;5038559;28;20029;-82
2023/01/18 03:39:27;;;;;;;0.10;0.10;;;2.80;99.90;;;;;;5047288;28;20027;-82
2023/01/18 03:41:56;;;;;;;0.10;0.10;;;2.80;99.90;;;;;;5042375;28;20044;-81
2023/01/18 03:44:29;;;;;;;0.10;0.10;;;2.80;99.90;;;;;;5043319;28;20032;-82
2023/01/18 03:46:56;;;;;;;0.10;0.10;;;2.80;99.90;;;;;;5039842;28;20072;-82
2023/01/18 03:49:22;;;;;;;0.10;0.10;;;2.90;99.90;;;;;;5043138;28;20070;-81
2023/01/18 03:51:58;;;;;;;0.30;0.30;;;2.70;99.90;;;;;;5039507;28;20051;-81
2023/01/18 03:54:46;;;;;;;0.20;0.20;;;2.70;99.90;;;;;;5038152;28;20033;-81
2023/01/18 03:57:23;;;;;;;0.45;0.45;;;2.60;99.90;;;;;;5042108;28;20086;-83
2023/01/18 03:59:48;;;;;;;;;;;2.70;99.90;;;;;;5046338;28;20023;-82
2023/01/18 04:02:16;;;;;;;0.10;0.10;;;2.60;99.90;;;;;;5041897;28;19909;-82
2023/01/18 04:04:41;;;;;;;0.10;0.10;;;2.60;99.90;;;;;;5039933;28;20048;-82
2023/01/18 04:07:07;;;;;;;0.10;0.10;;;2.50;99.90;;;;;;5036697;28;20056;-81
2023/01/18 04:09:33;;;;;;;0.10;0.10;;;2.80;99.90;;;;;;5041882;28;20420;-80
2023/01/18 04:11:59;;;;;;;0.20;0.20;;;3.00;99.90;;;;;;5055178;28;20469;-81
2023/01/18 04:14:24;;;;;;;0.10;0.10;;;3.00;99.90;;;;;;5046086;28;20162;-80
2023/01/18 04:16:50;;;;;;;0.10;0.10;;;3.10;99.90;;;;;;5044545;28;20040;-80
2023/01/18 04:19:16;;;;;;;0.10;0.10;;;3.00;99.90;;;;;;5045744;28;20036;-82
2023/01/18 04:21:42;;;;;;;0.10;0.10;;;3.20;99.90;;;;;;5044546;28;20037;-84
2023/01/18 04:24:08;;;;;;;2.00;0.82;;;3.20;99.90;;;;;;5045758;28;20048;-82
2023/01/18 04:26:34;;;;;;;0.28;0.28;;;3.20;99.90;;;;;;5048870;28;20548;-82
2023/01/18 04:29:00;;;;;;;1.02;0.65;;;3.20;99.90;;;;;;5045824;28;20017;-82
2023/01/18 04:31:26;;;;;;;0.10;0.10;;;3.10;99.90;;;;;;5045341;28;20032;-83
2023/01/18 04:33:51;;;;;;;0.10;0.10;;;3.10;99.90;;;;;;5045454;28;20029;-82
2023/01/18 04:36:18;;;;;;;0.20;0.20;;;3.10;99.90;;;;;;5044148;28;20025;-82
2023/01/18 04:38:44;;;;;;;0.85;0.55;;;3.20;99.90;;;;;;5043755;28;20484;-82
2023/01/18 04:41:10;;;;;;;0.50;0.50;;;3.20;99.90;;;;;;5044005;28;20108;-85
2023/01/18 04:43:36;;;;;;;0.10;0.10;;;3.20;99.90;;;;;;5045040;28;20044;-85
2023/01/18 04:46:02;;;;;;;0.50;0.45;;;3.10;99.90;;;;;;5045310;28;20983;-83
2023/01/18 04:48:28;;;;;;;0.10;0.10;;;2.90;99.90;;;;;;5044945;28;20033;-83
2023/01/18 04:50:53;;;;;;;0.10;0.10;;;2.80;99.90;;;;;;5045154;28;20032;-84
2023/01/18 04:53:20;;;;;;;0.10;0.10;;;2.90;99.90;;;;;;5044923;28;20032;-84
2023/01/18 04:55:45;;;;;;;0.30;0.30;;;2.80;99.90;;;;;;5045018;28;20099;-81
2023/01/18 04:58:11;;;;;;;0.10;0.10;;;2.90;99.90;;;;;;5046999;28;21490;-81
2023/01/18 05:00:40;;;;;;;0.10;0.10;;;2.90;99.90;;;;;;5049515;28;20044;-82
2023/01/18 05:03:10;;;;;;;0.10;0.10;;;2.80;99.90;;;;;;5046622;28;20090;-80
2023/01/18 05:05:36;;;;;;;0.20;0.20;;;2.90;99.90;;;;;;5043774;28;20053;-81
2023/01/18 05:08:01;;;;;;;0.10;0.10;;;2.80;99.90;;;;;;5042745;28;20592;-81
2023/01/18 05:10:30;;;;;;;0.10;0.10;;;2.60;99.90;;;;;;5044689;28;20029;-81
2023/01/18 05:12:55;;;;;;;0.10;0.10;;;2.50;99.90;;;;;;5053839;28;20048;-81
2023/01/18 05:15:21;;;;;;;0.10;0.10;;;2.50;99.90;;;;;;5042995;28;20543;-81
2023/01/18 05:17:47;;;;;;;0.10;0.10;;;2.40;99.90;;;;;;5042971;28;20036;-81
2023/01/18 05:20:12;;;;;;;0.10;0.10;;;2.60;99.90;;;;;;5044046;28;20027;-80
2023/01/18 05:22:38;;;;;;;0.10;0.10;;;2.40;99.90;;;;;;5043854;28;20060;-80
2023/01/18 05:25:05;;;;;;;0.10;0.10;;;2.30;99.90;;;;;;5048331;28;20033;-81
2023/01/18 05:27:31;;;;;;;;;;;2.30;99.90;;;;;;5046819;28;20067;-80
2023/01/18 05:29:58;;;;;;;0.10;0.10;;;2.40;99.90;;;;;;5043521;28;19908;-80
2023/01/18 05:32:24;;;;;;;0.10;0.10;;;2.50;99.90;;;;;;5044204;28;20029;-80
2023/01/18 05:34:50;;;;;;;0.13;0.13;;;2.50;99.90;;;;;;5042603;28;20120;-80
2023/01/18 05:37:16;;;;;;;0.10;0.10;;;2.40;99.90;;;;;;5041442;28;20331;-80
2023/01/18 05:39:42;;;;;;;0.22;0.22;;;2.50;99.90;;;;;;5044857;28;20155;-80
2023/01/18 05:42:10;;;;;;;0.40;0.40;;;2.50;99.90;;;;;;5041181;28;20025;-83
2023/01/18 05:44:36;;;;;;;0.10;0.10;;;2.50;99.90;;;;;;5042287;28;20101;-83
2023/01/18 05:47:02;;;;;;;0.10;0.10;;;2.50;99.90;;;;;;5044107;28;20430;-84
2023/01/18 05:49:28;;;;;;;0.10;0.10;;;2.60;99.90;;;;;;5044195;28;20029;-84
2023/01/18 05:51:54;;;;;;;0.80;0.80;;;2.50;99.90;;;;;;5041915;28;20033;-79
2023/01/18 05:54:19;;;;;;;0.50;0.47;;;2.60;99.90;;;;;;5043552;28;20271;-79
2023/01/18 05:56:45;;;;;;;0.98;0.95;;;2.60;99.90;;;;;;5047471;28;20123;-81
2023/01/18 05:59:13;;;;;;;0.15;0.15;;;2.60;99.90;;;;;;5050065;28;20046;-81
2023/01/18 06:01:39;;;;;;;0.10;0.10;;;2.60;99.90;;;;;;5046888;28;20407;-83
2023/01/18 06:04:05;;;;;;;0.40;0.40;;;2.70;99.90;;;;;;5041666;28;20035;-83
2023/01/18 06:06:30;;;;;;;0.53;0.53;;;2.80;99.90;;;;;;5030840;28;20030;-82
2023/01/18 06:08:56;;;;;;;0.30;0.30;;;2.80;99.90;;;;;;5042618;28;20982;-87
2023/01/18 06:11:22;;;;;;;0.10;0.10;;;2.70;99.90;;;;;;5048593;28;20274;-84
2023/01/18 06:13:47;;;;;;;0.20;0.20;;;2.70;99.90;;;;;;5044972;28;20032;-84
2023/01/18 06:16:13;;;;;;;0.17;0.17;;;2.80;99.90;;;;;;5048760;28;20071;-82
2023/01/18 06:18:40;;;;;;;0.28;0.28;;;2.80;99.90;;;;;;5045630;28;20071;-82
2023/01/18 06:21:06;;;;;;;0.90;0.52;;;2.90;99.90;;;;;;5038751;28;20024;-84
2023/01/18 06:23:34;;;;;;;0.10;0.10;;;2.60;99.90;;;;;;5033263;28;20142;-81
2023/01/18 06:25:59;;;;;;;;;;;2.70;99.90;;;;;;5047219;28;20047;-81
2023/01/18 06:28:25;;;;;;;0.77;0.40;;;2.60;99.90;;;;;;5035281;28;20291;-83
2023/01/18 06:30:52;;;;;;;0.20;0.20;;;2.60;99.90;;;;;;5031267;28;20028;-83
2023/01/18 06:33:17;;;;;;;0.20;0.20;;;2.70;99.90;;;;;;5032979;28;20797;-83
2023/01/18 06:35:43;;;;;;;0.20;0.20;;;2.50;99.90;;;;;;5043205;28;20121;-84
2023/01/18 06:38:10;;;;;;;0.10;0.10;;;2.50;99.90;;;;;;5041517;28;20026;-82
2023/01/18 06:40:36;;;;;;;0.20;0.20;;;2.50;99.90;;;;;;5047951;28;20112;-83
2023/01/18 06:43:02;;;;;;;0.10;0.10;;;2.60;99.90;;;;;;5039876;28;20072;-88
2023/01/18 06:45:28;;;;;;;0.50;0.50;;;2.50;99.90;;;;;;5041634;28;20259;-86
2023/01/18 06:47:54;;;;;;;0.45;0.45;;;2.50;99.90;;;;;;5043344;28;20298;-83
2023/01/18 06:50:21;;;;;;;0.40;0.40;;;2.50;99.90;;;;;;5041052;28;20104;-89
2023/01/18 06:52:47;;;;;;;1.05;0.80;;;2.50;99.90;;;;;;5043429;28;20116;-86
2023/01/18 06:55:14;;;;;;;0.50;0.50;;;2.60;99.90;;;;;;5043699;28;20132;-86
2023/01/18 06:57:40;;;;;;;0.30;0.30;;;2.60;99.90;;;;;;5043436;28;20025;-88
2023/01/18 07:00:07;;;;;;;0.20;0.20;;;2.40;99.90;;;;;;5045740;28;20083;-87
2023/01/18 07:02:34;;;;;;;0.20;0.20;;;2.60;99.90;;;;;;5042133;28;20028;-86
2023/01/18 07:05:00;;;;;;;0.40;0.40;;;2.40;99.90;;;;;;5048972;28;20783;-87
2023/01/18 07:07:27;;;;;;;0.30;0.30;;;2.40;99.90;;;;;;5039292;28;20029;-85
2023/01/18 07:09:52;;;;;;;0.73;0.70;;;2.40;99.90;;;;;;5042705;28;20071;-84
2023/01/18 07:12:18;;;;;;;0.20;0.20;;;2.50;99.90;;;;;;5044767;28;20025;-85
2023/01/18 07:14:44;;;;;;;0.20;0.20;;;2.50;99.90;;;;;;5041438;28;20043;-86
2023/01/18 07:17:10;;;;;;;0.85;0.85;;;2.60;99.90;;;;;;5039657;28;20037;-86
2023/01/18 07:19:35;;;;;;;0.20;0.20;;;2.50;99.90;;;;;;5041425;28;20025;-86
2023/01/18 07:22:01;;;;;;;0.20;0.20;;;2.20;99.90;;;;;;5051124;28;20033;-86
2023/01/18 07:24:27;;;;;;;0.10;0.10;;;2.00;99.90;;;;;;5031179;28;20040;-86
2023/01/18 07:26:54;;;;;;;0.38;0.38;;;1.90;99.90;;;;;;5038142;28;20133;-85
2023/01/18 07:29:20;;;;;;;0.10;0.10;;;1.70;99.90;;;;;;5042553;28;20151;-86
2023/01/18 07:31:46;;;;;;;0.32;0.32;;;1.70;99.90;;;;;;5042210;28;20029;-84
2023/01/18 07:34:12;;;;;;;0.17;0.17;;;2.10;99.90;;;;;;5042152;28;20036;-85
2023/01/18 07:36:40;;;;;;;0.10;0.10;;;2.30;99.90;;;;;;5041935;28;20063;-86
2023/01/18 07:39:07;;;;;;;0.10;0.10;;;2.40;99.90;;;;;;5042862;28;20063;-84
2023/01/18 07:41:32;;;;;;;0.10;0.10;;;2.40;99.90;;;;;;5042834;28;20079;-85
2023/01/18 07:43:59;;;;;;;0.10;0.10;;;2.50;99.90;;;;;;5042429;28;20041;-85
2023/01/18 07:46:25;;;;;;;0.40;0.30;;;2.40;99.90;;;;;;5041136;28;20057;-85
2023/01/18 07:48:51;;;;;;;0.20;0.20;;;2.50;99.90;;;;;;5042055;28;20509;-86
2023/01/18 07:51:19;;;;;;;0.10;0.10;;;2.50;99.90;;;;;;5035844;28;20032;-86
2023/01/18 07:53:44;;;;;;;0.30;0.30;;;2.40;99.90;;;;;;5042354;28;20044;-86
2023/01/18 07:56:16;;;;;;;0.15;0.15;;;2.50;99.90;;;;;;5042224;28;20431;-85
2023/01/18 07:58:42;;;;;;;0.10;0.10;;;2.60;99.90;;;;;;5042463;28;20258;-85
2023/01/18 08:01:11;;;;;;;0.10;0.10;;;2.50;99.90;;;;;;5042567;28;20028;-85
2023/01/18 08:03:37;;;;;;;0.10;0.10;;;2.50;99.90;;;;;;5041441;28;20037;-85
2023/01/18 08:06:05;;;;;;;0.10;0.10;;;2.60;99.90;;;;;;5039019;28;20024;-85
2023/01/18 08:08:31;;;;;;;0.10;0.10;;;2.60;99.90;;;;;;5037811;28;20083;-85
2023/01/18 08:11:00;;;;;;;0.95;0.93;;;2.60;99.90;;;;;;5042562;28;20783;-86
2023/01/18 08:13:26;;;;;;;0.10;0.10;;;2.60;99.90;;;;;;5045536;28;20025;-85
2023/01/18 08:15:53;;;;;;;0.47;0.47;;;2.50;99.90;;;;;;5038995;28;20033;-86
2023/01/18 08:18:19;;;;;;;0.28;0.28;;;2.40;99.90;;;;;;5041633;28;20748;-85
2023/01/18 08:20:46;;;;;;;0.10;0.10;;;2.60;99.90;;;;;;5041284;28;20028;-85
2023/01/18 08:23:11;;;;;;;;;;;2.40;99.90;;;;;;5050308;28;20026;-85
2023/01/18 08:25:37;;;;;;;0.53;0.53;;;2.40;99.90;;;;;;5043018;28;19939;-85
2023/01/18 08:28:04;;;;;;;0.10;0.10;;;2.50;99.90;;;;;;5041393;28;20100;-85
2023/01/18 08:30:36;;;;;;;0.10;0.10;;;2.60;99.90;;;;;;5041669;28;20089;-85
2023/01/18 08:33:03;;;;;;;0.10;0.10;;;2.60;99.90;;;;;;5041135;28;20593;-85
2023/01/18 08:35:31;;;;;;;0.10;0.10;;;2.40;99.90;;;;;;5041317;28;20040;-85
2023/01/18 08:37:58;;;;;;;0.10;0.10;;;2.40;99.90;;;;;;5039774;28;20072;-85
2023/01/18 08:40:25;;;;;;;0.10;0.10;;;2.40;99.90;;;;;;5041622;28;20047;-85
2023/01/18 08:43:01;;;;;;;0.10;0.10;;;2.60;99.90;;;;;;5039448;28;20025;-85
2023/01/18 08:45:27;;;;;;;0.10;0.10;;;2.80;99.90;;;;;;5039796;28;20037;-85
2023/01/18 08:47:56;;;;;;;0.10;0.10;;;2.70;99.90;;;;;;5041356;28;20060;-85
2023/01/18 08:50:22;;;;;;;0.10;0.10;;;2.60;99.90;;;;;;5041267;28;20036;-85
2023/01/18 08:52:47;;;;;;;0.10;0.10;;;2.70;99.90;;;;;;5040928;28;20054;-85
2023/01/18 08:55:13;;;;;;;0.15;0.15;;;2.70;99.90;;;;;;5041575;28;20029;-85
2023/01/18 08:57:39;;;;;;;0.10;0.10;;;2.80;99.90;;;;;;5044419;28;20098;-85
2023/01/18 09:00:05;;;;;;;0.10;0.10;;;2.80;99.90;;;;;;5049115;28;20037;-85
2023/01/18 09:02:31;;;;;;;0.52;0.52;;;2.70;99.90;;;;;;5059669;28;20448;-85
2023/01/18 09:04:57;;;;;;;0.20;0.20;;;2.60;99.90;;;;;;5044990;28;20056;-85
2023/01/18 09:07:22;;;;;;;0.10;0.10;;;2.80;99.90;;;;;;5039131;28;20029;-85
2023/01/18 09:09:48;;;;;;;0.20;0.20;;;2.90;99.90;;;;;;5052524;28;20496;-86
2023/01/18 09:12:14;;;;;;;0.10;0.10;;;3.10;99.90;;;;;;5055444;28;20028;-85
2023/01/18 09:14:39;;;;;;;0.10;0.10;;;2.90;99.90;;;;;;5044181;28;20021;-84
2023/01/18 09:17:06;;;;;;;0.10;0.10;;;3.20;99.90;;;;;;5043823;28;20052;-85
2023/01/18 09:19:32;;;;;;;0.10;0.10;;;3.40;99.90;;;;;;5044839;28;20492;-85
2023/01/18 09:21:58;;;;;;;0.10;0.10;;;3.70;99.90;;;;;;5044040;28;20032;-85
2023/01/18 09:24:24;;;;;;;0.10;0.10;;;3.70;99.90;;;;;;5044331;28;20090;-85
2023/01/18 09:26:52;;;;;;;0.20;0.20;;;3.70;99.90;;;;;;5040340;28;20853;-85
2023/01/18 09:29:18;;;;;;;0.10;0.10;;;3.80;99.90;;;;;;5043921;28;20040;-85
2023/01/18 09:31:44;;;;;;;0.20;0.20;;;3.90;99.90;;;;;;5043833;28;20049;-85
2023/01/18 09:34:13;;;;;;;0.20;0.20;;;3.80;99.90;;;;;;5043887;28;20132;-85
2023/01/18 09:36:39;;;;;;;0.10;0.10;;;3.80;99.90;;;;;;5043950;28;20064;-85
2023/01/18 09:39:06;;;;;;;0.10;0.10;;;3.70;99.90;;;;;;5044143;28;20067;-84
2023/01/18 09:41:38;;;;;;;0.10;0.10;;;3.50;99.90;;;;;;5043796;28;20036;-84
2023/01/18 09:44:07;;;;;;;0.10;0.10;;;3.70;99.90;;;;;;5043649;28;20043;-85
2023/01/18 09:46:36;;;;;;;0.10;0.10;;;4.00;99.90;;;;;;5042616;28;20025;-85
2023/01/18 09:49:03;;;;;;;0.10;0.10;;;4.70;99.90;;;;;;5044000;28;20514;-85
2023/01/18 09:51:35;;;;;;;0.10;0.10;;;5.00;99.90;;;;;;5043513;28;20578;-84
2023/01/18 09:54:17;;;;;;;0.30;0.30;;;4.70;99.90;;;;;;5037072;28;20029;-85
2023/01/18 09:57:00;;;;;;;0.13;0.13;;;5.10;99.90;;;;;;5046239;28;20030;-85
2023/01/18 09:59:48;;;;;;;0.10;0.10;;;5.70;99.90;;;;;;5043324;28;20686;-84
2023/01/18 10:02:24;;;;;;;0.22;0.22;;;5.80;99.90;;;;;;5043790;28;20498;-85
2023/01/18 10:04:59;;;;;;;0.20;0.20;;;5.90;99.90;;;;;;5044111;28;20037;-85
2023/01/18 10:07:28;;;;;;;0.10;0.10;;;4.90;99.90;;;;;;5037123;28;20045;-84
2023/01/18 10:09:57;;;;;;;0.10;0.10;;;4.50;99.90;;;;;;5043625;28;20059;-84
2023/01/18 10:12:28;;;;;;;0.55;0.55;;;4.40;99.90;;;;;;5052160;28;20037;-85
2023/01/18 10:15:16;;;;;;;0.10;0.10;;;4.30;99.90;;;;;;5043668;28;20044;-84
2023/01/18 10:17:44;;;;;;;0.25;0.25;;;4.30;99.90;;;;;;5042947;28;20543;-84
2023/01/18 10:20:32;;;;;;;0.15;0.15;;;4.20;99.90;;;;;;5043347;28;20112;-84
2023/01/18 10:23:01;;;;;;;0.10;0.10;;;4.60;99.90;;;;;;5033539;28;20021;-84
2023/01/18 10:26:00;;;;;;;0.20;0.20;;;4.90;99.90;;;;;;5042885;28;20055;-84
2023/01/18 10:28:55;;;;;;;0.10;0.10;;;4.30;99.90;;;;;;5042434;28;20044;-84
2023/01/18 10:31:32;;;;;;;0.28;0.28;;;4.50;99.90;;;;;;5039718;28;20435;-84
2023/01/18 10:33:59;;;;;;;0.20;0.20;;;4.30;99.90;;;;;;5043371;28;20060;-84
2023/01/18 10:36:31;;;;;;;1.48;1.08;;;4.10;99.90;;;;;;5042905;28;20040;-84
2023/01/18 10:39:00;;;;;;;0.20;0.20;;;3.50;99.90;;;;;;5043237;28;20143;-84
2023/01/18 10:41:34;;;;;;;0.10;0.10;;;3.40;99.90;;;;;;5049426;28;20033;-84
2023/01/18 10:44:00;;;;;;;0.10;0.10;;;3.80;99.90;;;;;;5043029;28;20033;-84
2023/01/18 10:46:27;;;;;;;0.45;0.45;;;4.40;99.90;;;;;;5042605;28;20040;-85
2023/01/18 10:48:56;;;;;;;0.10;0.10;;;4.60;99.90;;;;;;5043250;28;20029;-84
2023/01/18 10:51:35;;;;;;;0.20;0.20;;;4.60;99.90;;;;;;5042635;28;20957;-85
2023/01/18 10:54:22;;;;;;;0.25;0.25;;;4.50;99.90;;;;;;5042783;28;20171;-84
2023/01/18 10:56:48;;;;;;;0.20;0.20;;;3.90;99.90;;;;;;5037893;28;20029;-84
2023/01/18 10:59:28;;;;;;;0.10;0.10;;;3.80;99.90;;;;;;5042496;28;20496;-84
2023/01/18 11:01:56;;;;;;;0.10;0.10;;;4.20;99.90;;;;;;5039245;28;20040;-85
2023/01/18 11:04:33;;;;;;;0.20;0.20;;;4.40;99.90;;;;;;5048141;28;20079;-84
2023/01/18 11:07:00;;;;;;;0.10;0.10;;;4.60;99.90;;;;;;5042073;28;20066;-84
2023/01/18 11:09:47;;;;;;;0.25;0.25;;;4.70;99.90;;;;;;5042527;28;20143;-85
2023/01/18 11:15:12;;;;;;;0.10;0.10;;;4.80;99.90;;;;;;5043112;28;19912;-84
2023/01/18 11:17:38;;;;;;;0.20;0.20;;;4.50;99.90;;;;;;5042106;28;20084;-84
2023/01/18 11:20:05;;;;;;;0.40;0.40;;;4.20;99.80;;;;;;5042523;28;20035;-85
2023/01/18 11:22:32;;;;;;;;;;;4.10;99.40;;;;;;5041515;28;20880;-84
2023/01/18 11:24:58;;;;;;;;;;;3.90;97.40;;;;;;5042110;28;19963;-84
2023/01/18 11:27:24;;;;;;;0.10;0.10;;;4.00;98.30;;;;;;5040354;28;20920;-84
2023/01/18 11:29:50;;;;;;;0.30;0.30;;;3.90;96.00;;;;;;5041866;28;20078;-84
2023/01/18 11:32:26;;;;;;;0.52;0.52;;;3.90;98.00;;;;;;5042063;28;20794;-84
2023/01/18 11:34:55;;;;;;;0.20;0.20;;;4.00;99.70;;;;;;5041908;28;20185;-84
2023/01/18 11:37:42;;;;;;;0.50;0.50;;;4.20;99.90;;;;;;5041461;28;20017;-84
2023/01/18 11:40:27;;;;;;;0.40;0.40;;;4.30;99.90;;;;;;5040715;28;20060;-84
2023/01/18 11:43:14;;;;;;;0.10;0.10;;;4.40;99.90;;;;;;5040216;28;20762;-84
2023/01/18 11:45:44;;;;;;;;;;;4.30;99.90;;;;;;5041890;28;20446;-84
2023/01/18 11:48:19;;;;;;;0.20;0.20;;;4.30;99.90;;;;;;5040962;28;19908;-85
2023/01/18 11:50:59;;;;;;;0.10;0.10;;;4.30;99.90;;;;;;5035520;28;20040;-85
2023/01/18 11:53:58;;;;;;;0.10;0.10;;;4.30;99.90;;;;;;5036321;28;20032;-84
2023/01/18 11:56:38;;;;;;;0.20;0.20;;;4.20;99.40;;;;;;5041898;28;20024;-85
2023/01/18 11:59:20;;;;;;;0.13;0.13;;;4.00;98.30;;;;;;5038830;28;20025;-84
2023/01/18 12:02:22;;;;;;;0.15;0.15;;;4.00;99.90;;;;;;5036633;28;20037;-85
2023/01/18 12:05:20;;;;;;;0.20;0.20;;;4.00;99.90;;;;;;5039650;28;20809;-84
2023/01/18 12:11:22;;;;;;;1.45;0.47;;;3.90;99.90;;;;;;5038753;28;20045;-85
2023/01/18 12:14:02;;;;;;;0.30;0.28;;;4.20;99.90;;;;;;5050248;28;20088;-85
2023/01/18 12:16:53;;;;;;;0.32;0.32;;;4.10;99.90;;;;;;5037625;28;20022;-85
2023/01/18 12:19:32;;;;;;;0.10;0.10;;;4.10;99.90;;;;;;5034742;28;20643;-86
2023/01/18 12:22:26;;;;;;;0.10;0.10;;;3.90;98.90;;;;;;5028042;28;20029;-85
2023/01/18 12:25:14;;;;;;;0.13;0.13;;;4.00;99.30;;;;;;5038400;28;20055;-85
2023/01/18 12:27:48;;;;;;;0.55;0.55;;;4.00;99.40;;;;;;5033629;28;20089;-85
2023/01/18 12:30:58;;;;;;;0.20;0.20;;;3.80;97.30;;;;;;5041730;28;20024;-85
2023/01/18 12:33:42;;;;;;;0.57;0.57;;;3.70;98.10;;;;;;5021851;28;20045;-85
2023/01/18 12:36:28;;;;;;;0.73;0.73;;;3.70;99.20;;;;;;5021488;28;20021;-85
2023/01/18 12:38:55;;;;;;;0.10;0.10;;;3.70;99.90;;;;;;5033398;28;20037;-85
2023/01/18 12:41:21;;;;;;;;;;;3.70;99.90;;;;;;5045419;28;20499;-85
2023/01/18 12:44:03;;;;;;;0.30;0.30;;;3.60;99.90;;;;;;5028653;28;19920;-84
2023/01/18 12:46:47;;;;;;;0.52;0.45;;;3.70;99.90;;;;;;5034536;28;20654;-85
2023/01/18 12:49:20;;;;;;;0.10;0.10;;;3.50;99.60;;;;;;5029417;28;20052;-85
2023/01/18 12:51:58;;;;;;;0.10;0.10;;;3.10;99.90;;;;;;5037329;28;20029;-85
2023/01/18 12:54:37;;;;;;;0.20;0.20;;;3.50;99.90;;;;;;5031174;28;20120;-84
2023/01/18 12:57:03;;;;;;;0.10;0.10;;;3.60;98.40;;;;;;5035013;28;20028;-85
2023/01/18 12:59:33;;;;;;;0.17;0.17;;;3.60;99.60;;;;;;5034786;28;20052;-85
2023/01/18 13:02:25;;;;;;;0.17;0.17;;;3.70;99.50;;;;;;5044552;28;20447;-85
2023/01/18 13:05:00;;;;;;;0.28;0.28;;;3.60;99.90;;;;;;5043212;28;20115;-84
2023/01/18 13:07:43;;;;;;;0.10;0.10;;;3.70;99.60;;;;;;5043215;28;20104;-86
2023/01/18 13:10:20;;;;;;;0.15;0.15;;;3.80;99.80;;;;;;5035392;28;20045;-85
2023/01/18 13:12:48;;;;;;;0.38;0.38;;;3.90;98.60;;;;;;5043389;28;20056;-86
2023/01/18 13:15:33;;;;;;;0.10;0.10;;;4.10;98.00;;;;;;5045253;28;20028;-85
2023/01/18 13:18:14;;;;;;;0.10;0.10;;;3.80;97.20;;;;;;5033757;28;20515;-85
2023/01/18 13:20:43;;;;;;;0.10;0.10;;;3.60;93.90;;;;;;5035388;28;20127;-85
2023/01/18 13:23:38;;;;;;;0.10;0.10;;;3.80;95.00;;;;;;5036341;28;20031;-84
2023/01/18 13:26:19;;;;;;;0.10;0.10;;;3.90;95.60;;;;;;5052738;28;20045;-85
2023/01/18 13:28:45;;;;;;;0.63;0.63;;;3.90;95.60;;;;;;5042066;28;20021;-85
2023/01/18 13:31:11;;;;;;;0.20;0.20;;;3.80;93.20;;;;;;5039738;28;20029;-85
2023/01/18 13:33:46;;;;;;;0.30;0.30;;;4.00;94.30;;;;;;5040704;28;20117;-85
2023/01/18 13:36:14;;;;;;;0.10;0.10;;;4.20;94.20;;;;;;5040707;28;20052;-85
2023/01/18 13:38:57;;;;;;;0.20;0.20;;;4.40;94.50;;;;;;5034513;28;20021;-85
2023/01/18 13:41:30;;;;;;;0.20;0.20;;;4.30;94.30;;;;;;5050844;28;20071;-85
2023/01/18 13:44:03;;;;;;;0.30;0.30;;;4.20;94.70;;;;;;5043866;28;20045;-85
2023/01/18 13:46:32;;;;;;;0.20;0.20;;;4.20;94.80;;;;;;5043736;28;20031;-85
2023/01/18 13:49:44;;;;;;;2.83;0.75;;;4.10;95.30;;;;;;5043763;28;20032;-85
2023/01/18 13:52:34;;;;;;;0.30;0.30;;;4.50;95.30;;;;;;5034723;28;20430;-85
2023/01/18 13:55:04;;;;;;;0.10;0.10;;;4.50;94.30;;;;;;5036552;28;20021;-85
2023/01/18 13:57:31;;;;;;;0.22;0.22;;;4.50;93.60;;;;;;5043881;28;20017;-85